createdAt,value
2022-08-20T00:00:44.736Z,95.08
2022-08-20T00:01:44.938Z,95.08
2022-08-20T00:02:45.058Z,95.08
2022-08-20T00:03:49.989Z,95.18
2022-08-20T00:04:46.306Z,95.08
2022-08-20T00:05:45.466Z,94.98
2022-08-20T00:06:45.638Z,94.98
2022-08-20T00:07:45.806Z,94.64
2022-08-20T00:08:45.968Z,94.64
2022-08-20T00:09:46.118Z,94.43
2022-08-20T00:10:46.264Z,94.34
2022-08-20T00:11:46.417Z,94.54
2022-08-20T00:12:46.666Z,94.43
2022-08-20T00:13:46.746Z,94.73
2022-08-20T00:14:46.905Z,94.73
2022-08-20T00:15:47.057Z,94.54
2022-08-20T00:16:47.218Z,94.93
2022-08-20T00:17:47.386Z,94.93
2022-08-20T00:18:47.569Z,95.23
2022-08-20T00:19:47.753Z,95.14
2022-08-20T00:20:47.846Z,95.18
2022-08-20T00:21:47.998Z,95.38
2022-08-20T00:22:48.166Z,95.08
2022-08-20T00:23:48.319Z,95.14
2022-08-20T00:24:48.499Z,95.14
2022-08-20T00:25:48.587Z,94.84
2022-08-20T00:26:52.432Z,94.93
2022-08-20T00:27:48.898Z,94.93
2022-08-20T00:28:49.092Z,94.84
2022-08-20T00:29:49.267Z,94.93
2022-08-20T00:30:49.366Z,94.93
2022-08-20T00:31:49.508Z,94.84
2022-08-20T00:32:49.735Z,94.73
2022-08-20T00:33:49.828Z,94.64
2022-08-20T00:34:50.006Z,94.54
2022-08-20T00:35:50.147Z,94.54
2022-08-20T00:36:50.308Z,94.43
2022-08-20T00:37:50.468Z,94.78
2022-08-20T00:38:50.639Z,94.98
2022-08-20T00:39:50.907Z,95.48
2022-08-20T00:40:50.836Z,96.38
2022-08-20T00:41:51.028Z,97.49
2022-08-20T00:42:51.169Z,98.38
2022-08-20T00:43:51.340Z,99.68
2022-08-20T00:44:51.547Z,99.99
2022-08-20T00:45:51.635Z,99.99
2022-08-20T00:46:51.850Z,99.99
2022-08-20T00:47:52.045Z,99.99
2022-08-20T00:48:52.104Z,99.99
2022-08-20T00:49:52.328Z,99.99
2022-08-20T00:50:52.430Z,99.99
2022-08-20T00:51:52.578Z,99.99
2022-08-20T00:52:52.744Z,99.99
2022-08-20T00:53:52.908Z,99.99
2022-08-20T00:54:53.060Z,99.99
2022-08-20T00:55:53.243Z,99.99
2022-08-20T00:56:53.368Z,99.99
2022-08-20T00:58:01.089Z,99.99
2022-08-20T00:58:54.690Z,99.99
2022-08-20T00:59:53.839Z,99.99
2022-08-20T01:00:54.008Z,99.99
2022-08-20T01:01:55.514Z,99.99
2022-08-20T01:02:54.271Z,99.99
2022-08-20T01:03:54.427Z,99.99
2022-08-20T01:04:54.577Z,99.99
2022-08-20T01:05:54.741Z,99.99
2022-08-20T01:06:54.898Z,99.99
2022-08-20T01:07:55.197Z,99.99
2022-08-20T01:08:55.206Z,99.99
2022-08-20T01:09:58.979Z,99.99
2022-08-20T01:10:55.506Z,99.99
2022-08-20T01:11:55.603Z,99.99
2022-08-20T01:12:59.539Z,99.99
2022-08-20T01:13:55.847Z,99.99
2022-08-20T01:14:56.009Z,99.99
2022-08-20T01:15:56.212Z,99.99
2022-08-20T01:16:56.351Z,99.99
2022-08-20T01:17:57.364Z,99.99
2022-08-20T01:18:56.618Z,99.99
2022-08-20T01:19:57.517Z,99.99
2022-08-20T01:20:56.958Z,99.99
2022-08-20T01:21:57.060Z,99.99
2022-08-20T01:22:57.181Z,99.99
2022-08-20T01:23:57.329Z,99.99
2022-08-20T01:24:57.487Z,99.99
2022-08-20T01:25:57.652Z,99.99
2022-08-20T01:26:57.839Z,99.99
2022-08-20T01:27:58.383Z,99.99
2022-08-20T01:28:58.117Z,99.99
2022-08-20T01:29:58.275Z,99.99
2022-08-20T01:30:58.406Z,99.99
2022-08-20T01:31:58.579Z,99.99
2022-08-20T01:32:58.721Z,99.99
2022-08-20T01:33:58.816Z,99.99
2022-08-20T01:34:58.987Z,99.99
2022-08-20T01:35:59.128Z,99.99
2022-08-20T01:36:59.304Z,99.99
2022-08-20T01:37:59.460Z,99.99
2022-08-20T01:38:59.616Z,99.99
2022-08-20T01:39:59.799Z,99.99
2022-08-20T01:40:59.920Z,99.99
2022-08-20T01:42:00.075Z,99.99
2022-08-20T01:43:00.237Z,99.99
2022-08-20T01:44:00.449Z,99.99
2022-08-20T01:45:00.611Z,99.99
2022-08-20T01:46:00.718Z,99.99
2022-08-20T01:47:00.921Z,99.99
2022-08-20T01:48:01.098Z,99.99
2022-08-20T01:49:01.221Z,99.99
2022-08-20T01:50:01.309Z,99.99
2022-08-20T01:51:01.456Z,99.99
2022-08-20T01:52:01.609Z,99.99
2022-08-20T01:53:01.778Z,99.99
2022-08-20T01:54:01.933Z,99.99
2022-08-20T01:55:02.088Z,99.99
2022-08-20T01:56:02.249Z,99.99
2022-08-20T01:57:02.413Z,99.99
2022-08-20T01:58:02.567Z,99.99
2022-08-20T01:59:02.718Z,99.99
2022-08-20T02:00:02.894Z,99.99
2022-08-20T02:01:03.010Z,99.99
2022-08-20T02:02:03.091Z,99.99
2022-08-20T02:03:03.259Z,99.99
2022-08-20T02:04:03.386Z,99.99
2022-08-20T02:05:03.567Z,99.99
2022-08-20T02:06:03.720Z,99.99
2022-08-20T02:07:03.877Z,99.99
2022-08-20T02:08:04.052Z,99.99
2022-08-20T02:09:04.139Z,99.99
2022-08-20T02:10:04.307Z,99.99
2022-08-20T02:11:04.459Z,99.99
2022-08-20T02:12:04.626Z,99.99
2022-08-20T02:13:04.800Z,99.99
2022-08-20T02:14:04.948Z,99.99
2022-08-20T02:15:05.088Z,99.99
2022-08-20T02:16:05.239Z,99.99
2022-08-20T02:17:05.427Z,99.99
2022-08-20T02:18:05.580Z,99.99
2022-08-20T02:19:05.752Z,99.99
2022-08-20T02:20:05.912Z,99.99
2022-08-20T02:21:06.079Z,99.99
2022-08-20T02:22:06.228Z,99.99
2022-08-20T02:23:06.400Z,99.99
2022-08-20T02:24:06.553Z,99.99
2022-08-20T02:25:06.708Z,99.99
2022-08-20T02:26:06.852Z,99.99
2022-08-20T02:27:07.008Z,99.99
2022-08-20T02:28:07.202Z,99.99
2022-08-20T02:29:07.338Z,99.99
2022-08-20T02:30:08.210Z,99.99
2022-08-20T02:31:07.621Z,99.99
2022-08-20T02:32:32.305Z,99.99
2022-08-20T02:33:08.915Z,99.99
2022-08-20T02:34:22.566Z,99.99
2022-08-20T02:35:09.230Z,99.99
2022-08-20T02:36:08.372Z,99.99
2022-08-20T02:37:08.531Z,99.99
2022-08-20T02:38:08.670Z,99.99
2022-08-20T02:39:08.858Z,99.99
2022-08-20T02:40:09.008Z,99.99
2022-08-20T02:41:09.142Z,99.99
2022-08-20T02:42:09.324Z,99.99
2022-08-20T02:43:09.471Z,99.99
2022-08-20T02:44:09.598Z,99.99
2022-08-20T02:45:09.766Z,99.99
2022-08-20T02:46:10.910Z,99.99
2022-08-20T02:47:10.062Z,99.99
2022-08-20T02:48:10.210Z,99.99
2022-08-20T02:49:10.391Z,99.99
2022-08-20T02:50:10.503Z,99.99
2022-08-20T02:51:10.649Z,99.99
2022-08-20T02:52:10.798Z,99.99
2022-08-20T02:53:10.950Z,99.99
2022-08-20T02:54:11.098Z,99.99
2022-08-20T02:55:11.289Z,99.99
2022-08-20T02:56:12.389Z,99.99
2022-08-20T02:57:11.582Z,99.99
2022-08-20T02:58:11.671Z,99.99
2022-08-20T02:59:13.704Z,99.99
2022-08-20T03:00:13.018Z,99.99
2022-08-20T03:01:12.173Z,99.99
2022-08-20T03:02:12.298Z,99.99
2022-08-20T03:03:12.458Z,99.99
2022-08-20T03:04:12.605Z,99.99
2022-08-20T03:05:12.817Z,99.99
2022-08-20T03:06:12.920Z,99.99
2022-08-20T03:07:13.078Z,99.99
2022-08-20T03:08:13.219Z,99.99
2022-08-20T03:09:13.400Z,99.99
2022-08-20T03:10:13.493Z,99.99
2022-08-20T03:11:13.658Z,99.99
2022-08-20T03:12:13.807Z,99.99
2022-08-20T03:13:13.971Z,99.99
2022-08-20T03:14:14.120Z,99.99
2022-08-20T03:15:17.236Z,99.99
2022-08-20T03:16:14.431Z,99.99
2022-08-20T03:17:14.580Z,99.99
2022-08-20T03:18:14.733Z,99.99
2022-08-20T03:19:14.879Z,99.99
2022-08-20T03:20:15.026Z,99.99
2022-08-20T03:21:15.231Z,99.99
2022-08-20T03:22:15.379Z,99.99
2022-08-20T03:23:15.562Z,99.99
2022-08-20T03:24:15.708Z,99.99
2022-08-20T03:25:15.864Z,99.99
2022-08-20T03:26:16.033Z,99.99
2022-08-20T03:27:16.202Z,99.99
2022-08-20T03:28:16.330Z,99.99
2022-08-20T03:29:16.489Z,99.99
2022-08-20T03:30:16.620Z,99.99
2022-08-20T03:31:16.822Z,99.99
2022-08-20T03:32:16.902Z,99.99
2022-08-20T03:33:17.081Z,99.99
2022-08-20T03:34:17.221Z,99.99
2022-08-20T03:35:17.434Z,99.99
2022-08-20T03:36:20.757Z,99.99
2022-08-20T03:37:18.757Z,99.99
2022-08-20T03:38:17.865Z,99.99
2022-08-20T03:39:18.490Z,99.99
2022-08-20T03:40:18.210Z,99.99
2022-08-20T03:41:18.381Z,99.99
2022-08-20T03:42:18.564Z,99.99
2022-08-20T03:43:18.691Z,99.99
2022-08-20T03:44:18.851Z,99.99
2022-08-20T03:45:20.609Z,99.99
2022-08-20T03:46:22.189Z,99.99
2022-08-20T03:47:19.332Z,99.99
2022-08-20T03:48:19.473Z,99.99
2022-08-20T03:49:19.646Z,99.99
2022-08-20T03:50:22.911Z,99.99
2022-08-20T03:51:19.920Z,99.99
2022-08-20T03:52:20.031Z,99.99
2022-08-20T03:53:20.170Z,99.99
2022-08-20T03:54:20.354Z,99.99
2022-08-20T03:55:20.479Z,99.99
2022-08-20T03:56:20.708Z,99.99
2022-08-20T03:57:20.819Z,99.99
2022-08-20T03:58:20.963Z,99.99
2022-08-20T03:59:21.112Z,99.99
2022-08-20T04:00:21.289Z,99.99
2022-08-20T04:01:44.219Z,99.99
2022-08-20T04:02:22.603Z,99.99
2022-08-20T04:03:21.742Z,99.99
2022-08-20T04:04:21.901Z,99.99
2022-08-20T04:05:22.072Z,99.99
2022-08-20T04:06:22.232Z,99.99
2022-08-20T04:07:22.341Z,99.99
2022-08-20T04:08:22.441Z,99.99
2022-08-20T04:09:22.528Z,99.99
2022-08-20T04:10:22.712Z,99.99
2022-08-20T04:11:22.814Z,99.99
2022-08-20T04:12:22.969Z,99.99
2022-08-20T04:13:23.722Z,99.99
2022-08-20T04:14:23.329Z,99.99
2022-08-20T04:15:23.462Z,99.99
2022-08-20T04:16:23.605Z,99.99
2022-08-20T04:17:23.700Z,99.99
2022-08-20T04:18:23.870Z,99.99
2022-08-20T04:19:24.063Z,99.99
2022-08-20T04:20:24.257Z,99.99
2022-08-20T04:21:24.361Z,99.99
2022-08-20T04:22:24.502Z,99.99
2022-08-20T04:23:24.670Z,99.99
2022-08-20T04:24:32.047Z,99.99
2022-08-20T04:25:25.979Z,99.99
2022-08-20T04:26:25.159Z,99.99
2022-08-20T04:27:25.289Z,99.99
2022-08-20T04:28:25.449Z,99.99
2022-08-20T04:29:25.671Z,99.99
2022-08-20T04:30:26.776Z,99.99
2022-08-20T04:31:25.910Z,99.99
2022-08-20T04:32:26.082Z,99.99
2022-08-20T04:33:33.855Z,99.99
2022-08-20T04:34:27.444Z,99.99
2022-08-20T04:35:26.542Z,99.99
2022-08-20T04:36:26.745Z,99.99
2022-08-20T04:37:26.852Z,99.99
2022-08-20T04:38:27.025Z,99.99
2022-08-20T04:39:28.192Z,99.99
2022-08-20T04:40:27.283Z,99.99
2022-08-20T04:41:27.454Z,99.99
2022-08-20T04:42:27.624Z,99.99
2022-08-20T04:43:27.759Z,99.99
2022-08-20T04:44:27.933Z,99.99
2022-08-20T04:45:28.081Z,99.99
2022-08-20T04:46:28.261Z,99.99
2022-08-20T04:47:34.775Z,99.99
2022-08-20T04:48:29.553Z,99.99
2022-08-20T04:49:28.721Z,99.99
2022-08-20T04:50:28.873Z,99.99
2022-08-20T04:51:29.052Z,99.99
2022-08-20T04:52:29.193Z,99.99
2022-08-20T04:53:29.370Z,99.99
2022-08-20T04:54:29.858Z,99.99
2022-08-20T04:55:29.620Z,99.99
2022-08-20T04:56:29.801Z,99.99
2022-08-20T04:57:29.953Z,99.99
2022-08-20T04:58:30.642Z,99.99
2022-08-20T04:59:30.702Z,99.99
2022-08-20T05:00:30.775Z,99.99
2022-08-20T05:01:30.611Z,99.99
2022-08-20T05:02:30.733Z,99.99
2022-08-20T05:03:32.795Z,99.99
2022-08-20T05:04:31.041Z,99.99
2022-08-20T05:05:31.135Z,99.99
2022-08-20T05:06:31.310Z,99.99
2022-08-20T05:07:31.453Z,99.99
2022-08-20T05:08:31.660Z,99.99
2022-08-20T05:09:31.769Z,99.99
2022-08-20T05:10:32.931Z,99.99
2022-08-20T05:11:33.854Z,99.99
2022-08-20T05:12:32.284Z,99.99
2022-08-20T05:13:32.402Z,99.99
2022-08-20T05:14:32.582Z,99.99
2022-08-20T05:15:32.704Z,99.99
2022-08-20T05:16:32.926Z,99.99
2022-08-20T05:17:33.022Z,99.99
2022-08-20T05:18:33.183Z,99.99
2022-08-20T05:19:38.320Z,99.99
2022-08-20T05:20:34.512Z,99.99
2022-08-20T05:21:40.904Z,99.99
2022-08-20T05:22:34.557Z,99.99
2022-08-20T05:23:33.995Z,99.99
2022-08-20T05:24:34.135Z,99.99
2022-08-20T05:25:34.249Z,99.99
2022-08-20T05:26:34.374Z,99.99
2022-08-20T05:27:34.481Z,99.99
2022-08-20T05:28:36.887Z,99.99
2022-08-20T05:29:35.743Z,99.99
2022-08-20T05:30:34.897Z,99.99
2022-08-20T05:31:35.199Z,99.99
2022-08-20T05:32:35.205Z,99.99
2022-08-20T05:33:36.345Z,99.99
2022-08-20T05:34:35.528Z,99.99
2022-08-20T05:35:35.665Z,99.99
2022-08-20T05:36:35.838Z,99.99
2022-08-20T05:37:36.017Z,99.99
2022-08-20T05:38:36.178Z,99.99
2022-08-20T05:39:37.578Z,99.99
2022-08-20T05:40:36.486Z,99.99
2022-08-20T05:41:36.638Z,99.99
2022-08-20T05:42:36.854Z,99.99
2022-08-20T05:43:36.859Z,99.99
2022-08-20T05:44:37.019Z,99.99
2022-08-20T05:45:37.159Z,99.99
2022-08-20T05:46:37.338Z,99.99
2022-08-20T05:47:37.507Z,99.99
2022-08-20T05:48:38.678Z,99.99
2022-08-20T05:49:37.745Z,99.99
2022-08-20T05:50:37.925Z,99.99
2022-08-20T05:51:38.092Z,99.99
2022-08-20T05:52:38.249Z,99.99
2022-08-20T05:53:38.398Z,99.99
2022-08-20T05:54:38.546Z,99.99
2022-08-20T05:55:38.707Z,99.99
2022-08-20T05:56:38.927Z,99.99
2022-08-20T05:57:39.027Z,99.99
2022-08-20T05:58:39.189Z,99.99
2022-08-20T05:59:39.363Z,99.99
2022-08-20T06:00:39.515Z,99.99
2022-08-20T06:01:39.735Z,99.99
2022-08-20T06:02:39.887Z,99.99
2022-08-20T06:03:39.996Z,99.99
2022-08-20T06:04:40.096Z,99.99
2022-08-20T06:05:40.243Z,99.99
2022-08-20T06:06:45.938Z,99.99
2022-08-20T06:07:41.588Z,99.99
2022-08-20T06:08:40.737Z,99.99
2022-08-20T06:09:44.335Z,99.99
2022-08-20T06:10:42.663Z,99.99
2022-08-20T06:11:41.197Z,99.99
2022-08-20T06:12:41.329Z,99.99
2022-08-20T06:13:41.500Z,99.99
2022-08-20T06:14:41.638Z,99.99
2022-08-20T06:15:41.777Z,99.99
2022-08-20T06:16:46.705Z,99.99
2022-08-20T06:17:43.055Z,99.99
2022-08-20T06:18:42.248Z,99.99
2022-08-20T06:19:44.488Z,99.99
2022-08-20T06:20:42.538Z,99.99
2022-08-20T06:21:42.704Z,99.99
2022-08-20T06:22:42.864Z,99.99
2022-08-20T06:23:56.810Z,99.99
2022-08-20T06:24:44.190Z,99.99
2022-08-20T06:25:43.344Z,99.99
2022-08-20T06:26:43.536Z,99.99
2022-08-20T06:27:43.646Z,99.99
2022-08-20T06:28:43.818Z,99.99
2022-08-20T06:29:43.964Z,99.99
2022-08-20T06:30:44.137Z,99.99
2022-08-20T06:31:44.293Z,99.99
2022-08-20T06:32:44.447Z,99.99
2022-08-20T06:33:44.607Z,99.99
2022-08-20T06:34:50.243Z,99.99
2022-08-20T06:35:45.897Z,99.99
2022-08-20T06:36:45.091Z,99.99
2022-08-20T06:37:45.239Z,99.99
2022-08-20T06:38:45.407Z,99.99
2022-08-20T06:39:45.542Z,99.99
2022-08-20T06:40:45.698Z,99.99
2022-08-20T06:41:45.828Z,99.99
2022-08-20T06:42:48.729Z,99.99
2022-08-20T06:43:46.091Z,99.99
2022-08-20T06:44:46.258Z,99.99
2022-08-20T06:45:46.421Z,99.99
2022-08-20T06:46:46.580Z,99.99
2022-08-20T06:47:46.719Z,99.99
2022-08-20T06:48:46.928Z,99.99
2022-08-20T06:49:47.048Z,99.99
2022-08-20T06:50:47.962Z,99.99
2022-08-20T06:51:52.135Z,99.99
2022-08-20T06:52:52.798Z,99.99
2022-08-20T06:53:48.700Z,99.99
2022-08-20T06:54:47.870Z,99.99
2022-08-20T06:55:48.583Z,99.99
2022-08-20T06:56:48.151Z,99.99
2022-08-20T06:57:48.231Z,99.99
2022-08-20T06:58:48.397Z,99.99
2022-08-20T06:59:54.352Z,99.99
2022-08-20T07:00:49.781Z,99.99
2022-08-20T07:01:48.849Z,99.99
2022-08-20T07:02:49.094Z,99.99
2022-08-20T07:03:55.033Z,99.99
2022-08-20T07:04:50.349Z,99.99
2022-08-20T07:05:49.484Z,99.99
2022-08-20T07:06:49.641Z,99.99
2022-08-20T07:07:49.809Z,99.99
2022-08-20T07:08:49.942Z,99.99
2022-08-20T07:09:50.077Z,99.99
2022-08-20T07:10:50.278Z,99.99
2022-08-20T07:11:50.430Z,99.99
2022-08-20T07:12:50.624Z,99.99
2022-08-20T07:13:50.670Z,99.99
2022-08-20T07:14:52.805Z,99.49
2022-08-20T07:15:51.011Z,99.29
2022-08-20T07:16:51.163Z,99.08
2022-08-20T07:17:51.329Z,98.23
2022-08-20T07:18:51.439Z,98.63
2022-08-20T07:19:51.579Z,98.23
2022-08-20T07:20:51.733Z,99.08
2022-08-20T07:21:51.850Z,98.88
2022-08-20T07:22:52.026Z,98.68
2022-08-20T07:23:52.171Z,99.79
2022-08-20T07:24:52.300Z,99.88
2022-08-20T07:25:52.438Z,98.28
2022-08-20T07:26:52.600Z,99.18
2022-08-20T07:27:52.771Z,99.38
2022-08-20T07:28:52.941Z,99.08
2022-08-20T07:29:53.104Z,99.79
2022-08-20T07:30:56.219Z,99.79
2022-08-20T07:31:53.420Z,99.99
2022-08-20T07:32:53.668Z,99.99
2022-08-20T07:33:53.736Z,99.99
2022-08-20T07:34:53.951Z,99.99
2022-08-20T07:35:54.091Z,99.99
2022-08-20T07:36:54.319Z,99.99
2022-08-20T07:37:54.388Z,99.99
2022-08-20T07:38:54.563Z,99.99
2022-08-20T07:39:54.762Z,98.14
2022-08-20T07:40:54.871Z,97.74
2022-08-20T07:41:56.733Z,98.19
2022-08-20T07:42:55.370Z,97.99
2022-08-20T07:43:55.271Z,98.04
2022-08-20T07:44:55.480Z,96.25
2022-08-20T07:45:55.657Z,91.49
2022-08-20T07:46:55.762Z,93.65
2022-08-20T07:47:56.050Z,92.94
2022-08-20T07:48:56.079Z,95.95
2022-08-20T07:49:56.293Z,95.40
2022-08-20T07:50:56.453Z,95.00
2022-08-20T07:51:56.572Z,93.90
2022-08-20T07:52:56.884Z,94.00
2022-08-20T07:53:56.862Z,88.85
2022-08-20T07:54:57.029Z,89.39
2022-08-20T07:55:59.330Z,92.69
2022-08-20T07:56:57.340Z,94.19
2022-08-20T07:57:57.462Z,92.09
2022-08-20T07:58:57.662Z,94.79
2022-08-20T07:59:57.780Z,91.99
2022-08-20T08:00:58.062Z,94.69
2022-08-20T08:01:58.134Z,95.04
2022-08-20T08:02:58.323Z,95.25
2022-08-20T08:03:58.434Z,95.20
2022-08-20T08:04:58.600Z,93.95
2022-08-20T08:05:58.775Z,92.85
2022-08-20T08:06:58.923Z,93.30
2022-08-20T08:07:59.055Z,91.85
2022-08-20T08:08:59.201Z,92.75
2022-08-20T08:09:59.357Z,90.95
2022-08-20T08:10:59.619Z,90.30
2022-08-20T08:11:59.655Z,91.60
2022-08-20T08:12:59.796Z,91.76
2022-08-20T08:13:59.953Z,90.80
2022-08-20T08:15:00.122Z,89.16
2022-08-20T08:16:00.343Z,89.06
2022-08-20T08:17:00.497Z,89.26
2022-08-20T08:18:00.607Z,88.22
2022-08-20T08:19:00.726Z,89.48
2022-08-20T08:20:00.883Z,91.37
2022-08-20T08:21:00.992Z,91.03
2022-08-20T08:22:01.130Z,92.03
2022-08-20T08:23:01.202Z,90.19
2022-08-20T08:24:01.377Z,88.79
2022-08-20T08:25:01.496Z,87.80
2022-08-20T08:26:01.595Z,86.50
2022-08-20T08:27:01.751Z,88.45
2022-08-20T08:28:01.884Z,85.66
2022-08-20T08:29:01.976Z,87.35
2022-08-20T08:30:02.111Z,86.86
2022-08-20T08:31:02.203Z,87.26
2022-08-20T08:32:02.345Z,85.00
2022-08-20T08:33:02.453Z,86.60
2022-08-20T08:34:02.563Z,87.40
2022-08-20T08:35:02.645Z,84.15
2022-08-20T08:36:02.833Z,85.35
2022-08-20T08:37:02.955Z,86.98
2022-08-20T08:38:03.053Z,88.04
2022-08-20T08:39:03.153Z,86.64
2022-08-20T08:40:03.338Z,85.80
2022-08-20T08:41:03.401Z,85.27
2022-08-20T08:42:03.574Z,87.32
2022-08-20T08:43:03.673Z,86.82
2022-08-20T08:44:03.772Z,86.36
2022-08-20T08:45:03.912Z,86.72
2022-08-20T08:46:04.086Z,85.36
2022-08-20T08:47:04.177Z,83.83
2022-08-20T08:48:04.318Z,84.53
2022-08-20T08:49:04.406Z,85.44
2022-08-20T08:50:04.526Z,84.70
2022-08-20T08:51:04.635Z,79.03
2022-08-20T08:52:04.813Z,77.55
2022-08-20T08:53:04.906Z,80.73
2022-08-20T08:54:07.221Z,79.33
2022-08-20T08:55:05.187Z,79.57
2022-08-20T08:56:05.297Z,81.06
2022-08-20T08:57:05.434Z,80.63
2022-08-20T08:58:17.030Z,81.62
2022-08-20T08:59:06.696Z,78.64
2022-08-20T09:00:05.795Z,80.53
2022-08-20T09:01:09.683Z,81.06
2022-08-20T09:02:07.118Z,79.51
2022-08-20T09:03:07.423Z,81.06
2022-08-20T09:04:06.294Z,83.35
2022-08-20T09:05:06.367Z,80.27
2022-08-20T09:06:06.516Z,78.04
2022-08-20T09:07:06.616Z,76.91
2022-08-20T09:08:06.767Z,74.19
2022-08-20T09:09:06.866Z,74.16
2022-08-20T09:10:07.024Z,75.38
2022-08-20T09:11:07.156Z,77.26
2022-08-20T09:12:07.328Z,72.10
2022-08-20T09:13:07.458Z,71.08
2022-08-20T09:14:07.567Z,71.87
2022-08-20T09:15:07.647Z,69.56
2022-08-20T09:16:07.818Z,71.01
2022-08-20T09:17:07.933Z,70.81
2022-08-20T09:18:08.015Z,69.65
2022-08-20T09:19:08.127Z,70.31
2022-08-20T09:20:08.276Z,69.49
2022-08-20T09:21:08.454Z,69.95
2022-08-20T09:22:08.576Z,69.19
2022-08-20T09:23:08.677Z,66.49
2022-08-20T09:24:08.789Z,69.56
2022-08-20T09:25:08.898Z,69.12
2022-08-20T09:26:09.032Z,70.48
2022-08-20T09:27:09.170Z,70.81
2022-08-20T09:28:09.330Z,72.43
2022-08-20T09:29:09.451Z,72.53
2022-08-20T09:30:09.568Z,71.70
2022-08-20T09:31:09.765Z,69.62
2022-08-20T09:32:09.812Z,66.99
2022-08-20T09:33:09.930Z,66.16
2022-08-20T09:34:10.028Z,64.81
2022-08-20T09:35:10.158Z,65.15
2022-08-20T09:36:29.019Z,64.72
2022-08-20T09:37:11.410Z,62.36
2022-08-20T09:38:10.550Z,60.67
2022-08-20T09:39:10.668Z,66.46
2022-08-20T09:40:10.815Z,67.18
2022-08-20T09:41:10.871Z,69.23
2022-08-20T09:42:11.018Z,68.27
2022-08-20T09:43:11.137Z,67.02
2022-08-20T09:44:11.289Z,69.42
2022-08-20T09:45:11.657Z,69.06
2022-08-20T09:46:11.480Z,69.32
2022-08-20T09:47:11.628Z,70.18
2022-08-20T09:48:11.831Z,72.17
2022-08-20T09:49:11.867Z,71.61
2022-08-20T09:50:12.020Z,71.75
2022-08-20T09:51:12.112Z,73.93
2022-08-20T09:52:12.252Z,73.86
2022-08-20T09:53:12.391Z,75.46
2022-08-20T09:54:12.548Z,75.26
2022-08-20T09:55:12.635Z,75.22
2022-08-20T09:56:12.771Z,72.77
2022-08-20T09:57:12.919Z,72.38
2022-08-20T09:58:13.021Z,75.26
2022-08-20T09:59:13.189Z,74.69
2022-08-20T10:00:13.271Z,75.59
2022-08-20T10:01:13.885Z,76.39
2022-08-20T10:02:13.540Z,73.33
2022-08-20T10:03:13.653Z,70.91
2022-08-20T10:04:14.480Z,67.21
2022-08-20T10:05:13.916Z,65.73
2022-08-20T10:06:14.022Z,63.89
2022-08-20T10:07:16.043Z,62.25
2022-08-20T10:08:14.225Z,62.32
2022-08-20T10:09:14.352Z,57.88
2022-08-20T10:10:14.572Z,58.84
2022-08-20T10:11:14.614Z,58.84
2022-08-20T10:12:14.761Z,56.08
2022-08-20T10:13:15.386Z,59.40
2022-08-20T10:14:15.002Z,57.84
2022-08-20T10:15:15.157Z,55.75
2022-08-20T10:16:15.658Z,57.32
2022-08-20T10:17:15.341Z,54.83
2022-08-20T10:18:15.482Z,56.52
2022-08-20T10:19:15.614Z,54.17
2022-08-20T10:20:15.781Z,52.84
2022-08-20T10:21:15.861Z,51.91
2022-08-20T10:22:16.002Z,53.33
2022-08-20T10:23:16.143Z,55.30
2022-08-20T10:24:16.306Z,53.06
2022-08-20T10:25:16.415Z,56.34
2022-08-20T10:26:16.571Z,54.35
2022-08-20T10:27:16.696Z,52.62
2022-08-20T10:28:16.802Z,52.87
2022-08-20T10:29:16.944Z,51.69
2022-08-20T10:30:17.083Z,55.60
2022-08-20T10:31:17.236Z,51.96
2022-08-20T10:32:17.395Z,50.73
2022-08-20T10:33:17.495Z,49.16
2022-08-20T10:34:17.645Z,47.55
2022-08-20T10:35:17.777Z,47.57
2022-08-20T10:36:17.879Z,49.63
2022-08-20T10:37:18.024Z,49.14
2022-08-20T10:38:18.136Z,49.97
2022-08-20T10:39:18.238Z,48.26
2022-08-20T10:40:18.433Z,45.84
2022-08-20T10:41:18.515Z,46.31
2022-08-20T10:42:18.676Z,46.20
2022-08-20T10:43:20.729Z,49.80
2022-08-20T10:44:18.955Z,51.81
2022-08-20T10:45:19.036Z,55.43
2022-08-20T10:46:19.157Z,55.85
2022-08-20T10:47:19.334Z,56.69
2022-08-20T10:48:21.504Z,57.73
2022-08-20T10:49:19.558Z,59.36
2022-08-20T10:50:19.696Z,60.11
2022-08-20T10:51:19.836Z,61.03
2022-08-20T10:52:19.990Z,62.21
2022-08-20T10:53:20.118Z,61.45
2022-08-20T10:54:20.248Z,61.78
2022-08-20T10:55:20.329Z,62.21
2022-08-20T10:56:20.466Z,59.38
2022-08-20T10:57:20.865Z,59.70
2022-08-20T10:58:20.757Z,62.23
2022-08-20T10:59:20.933Z,63.62
2022-08-20T11:00:21.042Z,63.42
2022-08-20T11:01:32.749Z,64.61
2022-08-20T11:02:22.303Z,64.54
2022-08-20T11:03:21.438Z,63.28
2022-08-20T11:04:21.611Z,64.20
2022-08-20T11:05:21.660Z,65.59
2022-08-20T11:06:21.766Z,65.92
2022-08-20T11:07:21.898Z,67.80
2022-08-20T11:08:33.714Z,67.05
2022-08-20T11:09:23.127Z,66.58
2022-08-20T11:10:22.257Z,67.97
2022-08-20T11:11:22.386Z,69.29
2022-08-20T11:12:22.560Z,69.62
2022-08-20T11:13:22.639Z,71.75
2022-08-20T11:14:22.809Z,71.48
2022-08-20T11:15:22.891Z,72.97
2022-08-20T11:16:23.044Z,72.71
2022-08-20T11:17:23.160Z,74.63
2022-08-20T11:18:23.291Z,75.07
2022-08-20T11:19:23.431Z,76.24
2022-08-20T11:20:23.571Z,79.33
2022-08-20T11:21:23.698Z,79.96
2022-08-20T11:22:23.872Z,79.66
2022-08-20T11:23:23.940Z,81.36
2022-08-20T11:24:24.111Z,80.42
2022-08-20T11:25:24.193Z,80.32
2022-08-20T11:26:24.360Z,81.52
2022-08-20T11:27:24.453Z,80.12
2022-08-20T11:28:31.392Z,79.99
2022-08-20T11:29:25.719Z,78.89
2022-08-20T11:30:24.821Z,78.35
2022-08-20T11:31:24.921Z,77.26
2022-08-20T11:32:25.072Z,76.25
2022-08-20T11:33:25.192Z,74.09
2022-08-20T11:34:25.341Z,73.63
2022-08-20T11:35:42.311Z,70.84
2022-08-20T11:36:26.594Z,70.32
2022-08-20T11:37:25.716Z,70.62
2022-08-20T11:38:25.861Z,70.42
2022-08-20T11:39:26.002Z,70.72
2022-08-20T11:40:26.212Z,70.42
2022-08-20T11:41:26.269Z,68.40
2022-08-20T11:42:26.401Z,68.83
2022-08-20T11:43:26.483Z,69.16
2022-08-20T11:44:26.649Z,69.39
2022-08-20T11:45:26.741Z,69.36
2022-08-20T11:46:28.723Z,69.76
2022-08-20T11:47:26.983Z,68.07
2022-08-20T11:48:27.130Z,65.30
2022-08-20T11:49:27.289Z,61.13
2022-08-20T11:50:27.391Z,59.30
2022-08-20T11:51:27.498Z,57.92
2022-08-20T11:52:27.635Z,58.87
2022-08-20T11:53:27.783Z,60.17
2022-08-20T11:54:27.974Z,62.96
2022-08-20T11:55:28.610Z,62.34
2022-08-20T11:56:28.196Z,60.80
2022-08-20T11:57:28.292Z,59.16
2022-08-20T11:58:28.442Z,56.94
2022-08-20T11:59:28.571Z,56.66
2022-08-20T12:00:30.408Z,55.75
2022-08-20T12:01:28.865Z,53.16
2022-08-20T12:02:28.993Z,54.39
2022-08-20T12:03:29.096Z,54.57
2022-08-20T12:04:29.204Z,53.56
2022-08-20T12:05:29.387Z,52.72
2022-08-20T12:06:29.451Z,52.20
2022-08-20T12:07:29.523Z,51.64
2022-08-20T12:08:29.704Z,52.42
2022-08-20T12:09:29.797Z,50.42
2022-08-20T12:10:29.976Z,50.61
2022-08-20T12:11:30.083Z,52.92
2022-08-20T12:12:30.174Z,53.98
2022-08-20T12:13:47.568Z,56.62
2022-08-20T12:14:31.445Z,57.70
2022-08-20T12:15:30.524Z,57.92
2022-08-20T12:16:30.702Z,58.61
2022-08-20T12:17:30.786Z,56.56
2022-08-20T12:18:31.136Z,55.77
2022-08-20T12:19:31.186Z,56.91
2022-08-20T12:20:31.277Z,58.94
2022-08-20T12:21:32.568Z,58.97
2022-08-20T12:22:31.556Z,59.16
2022-08-20T12:23:31.605Z,58.43
2022-08-20T12:24:31.705Z,59.32
2022-08-20T12:25:31.847Z,59.45
2022-08-20T12:26:31.945Z,60.63
2022-08-20T12:27:32.037Z,58.92
2022-08-20T12:28:32.229Z,57.68
2022-08-20T12:29:32.369Z,55.77
2022-08-20T12:30:32.453Z,56.35
2022-08-20T12:31:33.528Z,56.48
2022-08-20T12:32:32.667Z,55.49
2022-08-20T12:33:32.779Z,57.68
2022-08-20T12:34:32.898Z,57.29
2022-08-20T12:35:33.014Z,58.37
2022-08-20T12:36:33.120Z,56.99
2022-08-20T12:37:33.271Z,57.49
2022-08-20T12:38:33.378Z,55.48
2022-08-20T12:39:33.605Z,53.98
2022-08-20T12:40:33.708Z,54.43
2022-08-20T12:41:33.773Z,54.43
2022-08-20T12:42:33.886Z,55.95
2022-08-20T12:43:34.007Z,56.87
2022-08-20T12:44:34.128Z,55.51
2022-08-20T12:45:34.262Z,57.32
2022-08-20T12:46:34.359Z,54.85
2022-08-20T12:47:34.474Z,54.94
2022-08-20T12:48:34.610Z,52.92
2022-08-20T12:49:34.808Z,52.43
2022-08-20T12:50:34.890Z,52.53
2022-08-20T12:51:35.027Z,51.15
2022-08-20T12:52:35.181Z,50.93
2022-08-20T12:53:35.508Z,49.43
2022-08-20T12:54:35.423Z,50.61